createdAt,value
2023-03-15T00:00:15.718Z,-1.27
2023-03-15T00:02:45.506Z,-1.22
2023-03-15T00:05:15.664Z,-1.17
2023-03-15T00:07:47.637Z,-1.14
2023-03-15T00:10:17.063Z,-1.08
2023-03-15T00:12:46.457Z,-1.07
2023-03-15T00:15:16.990Z,-1.07
2023-03-15T00:17:46.455Z,-1.05
2023-03-15T00:20:18.962Z,-1.04
2023-03-15T00:22:50.947Z,-1.05
2023-03-15T00:25:20.755Z,-1.09
2023-03-15T00:27:50.114Z,-1.07
2023-03-15T00:30:20.569Z,-1.04
2023-03-15T00:32:50.297Z,-1.09
2023-03-15T00:35:20.600Z,-1.09
2023-03-15T00:37:54.413Z,-1.14
2023-03-15T00:40:23.836Z,-1.14
2023-03-15T00:42:53.486Z,-1.13
2023-03-15T00:45:24.472Z,-1.11
2023-03-15T00:47:54.417Z,-1.20
2023-03-15T00:50:24.899Z,-1.17
2023-03-15T00:52:56.953Z,-1.15
2023-03-15T00:55:27.106Z,-1.15
2023-03-15T00:57:56.737Z,-1.16
2023-03-15T01:00:27.797Z,-1.15
2023-03-15T01:02:57.729Z,-1.17
2023-03-15T01:05:27.154Z,-1.18
2023-03-15T01:07:59.174Z,-1.16
2023-03-15T01:10:28.576Z,-1.15
2023-03-15T01:13:00.931Z,-1.14
2023-03-15T01:15:30.364Z,-1.17
2023-03-15T01:17:59.735Z,-1.16
2023-03-15T01:20:29.162Z,-1.12
2023-03-15T01:23:01.264Z,-1.13
2023-03-15T01:25:30.707Z,-1.12
2023-03-15T01:28:00.108Z,-1.13
2023-03-15T01:30:29.528Z,-1.08
2023-03-15T01:32:59.567Z,-1.12
2023-03-15T01:35:28.973Z,-1.10
2023-03-15T01:38:00.951Z,-1.11
2023-03-15T01:40:30.381Z,-1.10
2023-03-15T01:43:17.724Z,-1.13
2023-03-15T01:46:01.636Z,-1.11
2023-03-15T01:48:33.805Z,-1.16
2023-03-15T01:51:04.436Z,-1.16
2023-03-15T01:53:36.945Z,-1.17
2023-03-15T01:56:07.843Z,-1.15
2023-03-15T01:58:37.996Z,-1.17
2023-03-15T02:01:07.862Z,-1.16
2023-03-15T02:03:39.106Z,-1.16
2023-03-15T02:06:10.917Z,-1.12
2023-03-15T02:08:45.855Z,-1.14
2023-03-15T02:11:16.573Z,-1.16
2023-03-15T02:13:46.661Z,-1.17
2023-03-15T02:16:16.084Z,-1.11
2023-03-15T02:18:45.817Z,-1.11
2023-03-15T02:21:36.298Z,-1.13
2023-03-15T02:24:18.694Z,-1.11
2023-03-15T02:26:51.360Z,-1.11
2023-03-15T02:29:25.285Z,-1.12
2023-03-15T02:31:55.189Z,-1.09
2023-03-15T02:34:25.532Z,-1.09
2023-03-15T02:36:55.727Z,-1.07
2023-03-15T02:39:27.349Z,-1.07
2023-03-15T02:41:58.691Z,-1.03
2023-03-15T02:44:33.390Z,-1.06
2023-03-15T02:47:06.141Z,-1.03
2023-03-15T02:49:39.319Z,-1.11
2023-03-15T02:52:09.521Z,-1.07
2023-03-15T02:54:39.410Z,-1.09
2023-03-15T02:57:09.137Z,-1.11
2023-03-15T02:59:42.122Z,-1.06
2023-03-15T03:02:12.354Z,-1.08
2023-03-15T03:04:42.081Z,-1.07
2023-03-15T03:07:11.663Z,-1.03
2023-03-15T03:09:41.111Z,-0.99
2023-03-15T03:12:10.614Z,-0.98
2023-03-15T03:14:46.033Z,-0.97
2023-03-15T03:17:15.435Z,-0.99
2023-03-15T03:19:45.101Z,-0.96
2023-03-15T03:22:16.270Z,-0.96
2023-03-15T03:24:46.196Z,-0.97
2023-03-15T03:27:16.846Z,-0.97
2023-03-15T03:29:48.927Z,-0.94
2023-03-15T03:32:18.364Z,-0.98
2023-03-15T03:34:48.394Z,-0.99
2023-03-15T03:37:19.681Z,-0.99
2023-03-15T03:39:49.720Z,-0.97
2023-03-15T03:42:19.163Z,-0.97
2023-03-15T03:44:51.199Z,-0.95
2023-03-15T03:47:20.598Z,-0.82
2023-03-15T03:49:49.964Z,-0.84
2023-03-15T03:52:19.377Z,-0.79
2023-03-15T03:54:48.752Z,-0.78
2023-03-15T03:57:18.131Z,-0.88
2023-03-15T03:59:47.538Z,-0.87
2023-03-15T04:02:19.819Z,-0.79
2023-03-15T04:04:50.375Z,-0.77
2023-03-15T04:07:19.954Z,-0.88
2023-03-15T04:09:49.583Z,-0.96
2023-03-15T04:12:19.244Z,-0.84
2023-03-15T04:14:48.903Z,-0.88
2023-03-15T04:17:20.956Z,-0.89
2023-03-15T04:19:50.389Z,-0.99
2023-03-15T04:22:19.753Z,-0.88
2023-03-15T04:24:50.738Z,-0.92
2023-03-15T04:27:20.158Z,-0.94
2023-03-15T04:29:49.580Z,-0.91
2023-03-15T04:32:21.658Z,-1.05
2023-03-15T04:34:51.412Z,-1.17
2023-03-15T04:37:21.516Z,-1.25
2023-03-15T04:39:52.524Z,-1.26
2023-03-15T04:42:21.997Z,-1.28
2023-03-15T04:44:51.415Z,-1.29
2023-03-15T04:47:23.649Z,-1.22
2023-03-15T04:49:53.068Z,-1.25
2023-03-15T04:52:22.475Z,-1.25
2023-03-15T04:54:52.141Z,-1.26
2023-03-15T04:57:21.554Z,-1.29
2023-03-15T04:59:50.980Z,-1.29
2023-03-15T05:02:23.180Z,-1.28
2023-03-15T05:04:52.631Z,-1.31
2023-03-15T05:07:22.009Z,-1.37
2023-03-15T05:09:51.466Z,-1.41
2023-03-15T05:12:20.903Z,-1.36
2023-03-15T05:14:52.167Z,-1.36
2023-03-15T05:17:25.423Z,-1.38
2023-03-15T05:19:54.852Z,-1.34
2023-03-15T05:22:26.013Z,-1.36
2023-03-15T05:24:56.307Z,-1.37
2023-03-15T05:27:25.720Z,-1.35
2023-03-15T05:29:55.158Z,-1.38
2023-03-15T05:32:27.224Z,-1.39
2023-03-15T05:34:57.313Z,-1.40
2023-03-15T05:37:27.032Z,-1.41
2023-03-15T05:39:56.778Z,-1.44
2023-03-15T05:42:29.303Z,-1.43
2023-03-15T05:44:59.651Z,-1.40
2023-03-15T05:47:33.228Z,-1.43
2023-03-15T05:50:05.160Z,-1.50
2023-03-15T05:52:34.602Z,-1.51
2023-03-15T05:55:04.030Z,-1.51
2023-03-15T05:57:33.622Z,-1.47
2023-03-15T06:00:04.743Z,-1.46
2023-03-15T06:02:36.724Z,-1.50
2023-03-15T06:05:06.323Z,-1.44
2023-03-15T06:07:36.072Z,-1.44
2023-03-15T06:10:05.785Z,-1.43
2023-03-15T06:12:35.174Z,-1.43
2023-03-15T06:15:04.585Z,-1.47
2023-03-15T06:17:36.661Z,-1.47
2023-03-15T06:20:06.379Z,-1.47
2023-03-15T06:22:35.916Z,-1.47
2023-03-15T06:25:05.397Z,-1.44
2023-03-15T06:27:34.916Z,-1.42
2023-03-15T06:30:04.414Z,-1.43
2023-03-15T06:32:36.386Z,-1.38
2023-03-15T06:35:06.128Z,-1.33
2023-03-15T06:37:36.168Z,-1.29
2023-03-15T06:40:08.941Z,-1.26
2023-03-15T06:42:39.027Z,-1.16
2023-03-15T06:45:10.257Z,-1.07
2023-03-15T06:47:42.244Z,-0.99
2023-03-15T06:50:13.870Z,-0.89
2023-03-15T06:52:43.303Z,-0.86
2023-03-15T06:55:17.287Z,-0.83
2023-03-15T06:57:46.732Z,-0.79
2023-03-15T07:00:18.142Z,-0.78
2023-03-15T07:02:50.195Z,-0.71
2023-03-15T07:05:19.756Z,-0.65
2023-03-15T07:07:49.195Z,-0.66
2023-03-15T07:10:18.780Z,-0.66
2023-03-15T07:12:48.176Z,-0.66
2023-03-15T07:15:17.759Z,-0.48
2023-03-15T07:17:49.903Z,-0.39
2023-03-15T07:20:19.518Z,-0.47
2023-03-15T07:22:49.846Z,-0.48
2023-03-15T07:25:23.868Z,-0.66
2023-03-15T07:27:53.443Z,-0.60
2023-03-15T07:30:23.630Z,-0.52
2023-03-15T07:32:55.706Z,-0.66
2023-03-15T07:35:25.228Z,-0.64
2023-03-15T07:37:54.793Z,-0.62
2023-03-15T07:40:26.385Z,-0.59
2023-03-15T07:42:55.816Z,-0.57
2023-03-15T07:45:25.251Z,-0.45
2023-03-15T07:47:57.205Z,-0.56
2023-03-15T07:50:26.631Z,-0.50
2023-03-15T07:52:56.094Z,-0.45
2023-03-15T07:55:25.520Z,-0.44
2023-03-15T07:57:54.971Z,-0.38
2023-03-15T08:00:24.942Z,-0.34
2023-03-15T08:02:57.113Z,-0.36
2023-03-15T08:05:28.993Z,-0.22
2023-03-15T08:07:58.887Z,-0.28
2023-03-15T08:10:28.340Z,-0.14
2023-03-15T08:12:57.808Z,0.12
2023-03-15T08:15:27.284Z,0.17
2023-03-15T08:17:59.738Z,0.34
2023-03-15T08:20:29.998Z,0.40
2023-03-15T08:22:59.651Z,0.28
2023-03-15T08:25:29.322Z,0.27
2023-03-15T08:27:58.712Z,0.19
2023-03-15T08:30:28.277Z,0.29
2023-03-15T08:33:00.380Z,0.40
2023-03-15T08:35:31.122Z,0.30
2023-03-15T08:38:02.623Z,0.22
2023-03-15T08:40:32.937Z,0.32
2023-03-15T08:43:02.800Z,0.49
2023-03-15T08:45:37.465Z,0.63
2023-03-15T08:48:14.897Z,0.90
2023-03-15T08:50:44.453Z,0.86
2023-03-15T08:53:14.163Z,1.23
2023-03-15T08:55:44.209Z,1.28
2023-03-15T08:58:14.435Z,1.04
2023-03-15T09:00:43.858Z,1.15
2023-03-15T09:03:16.820Z,1.18
2023-03-15T09:05:46.303Z,0.89
2023-03-15T09:08:17.013Z,0.57
2023-03-15T09:10:46.591Z,0.24
2023-03-15T09:13:16.236Z,0.19
2023-03-15T09:15:45.628Z,0.18
2023-03-15T09:18:17.607Z,0.17
2023-03-15T09:20:47.169Z,0.20
2023-03-15T09:23:17.147Z,0.00
2023-03-15T09:25:46.533Z,0.10
2023-03-15T09:28:15.982Z,0.10
2023-03-15T09:30:45.484Z,0.07
2023-03-15T09:33:17.561Z,0.34
2023-03-15T09:35:47.270Z,0.43
2023-03-15T09:38:16.974Z,0.62
2023-03-15T09:40:47.546Z,0.62
2023-03-15T09:43:34.782Z,0.73
2023-03-15T09:46:13.679Z,0.83
2023-03-15T09:48:53.215Z,0.69
2023-03-15T09:51:32.704Z,0.65
2023-03-15T09:54:05.562Z,0.85
2023-03-15T09:56:37.342Z,1.00
2023-03-15T09:59:07.274Z,1.20
2023-03-15T10:01:39.579Z,1.28
2023-03-15T10:04:16.702Z,1.68
2023-03-15T10:06:51.848Z,1.53
2023-03-15T10:09:26.722Z,1.18
2023-03-15T10:12:04.158Z,1.03
2023-03-15T10:14:42.976Z,0.63
2023-03-15T10:17:15.770Z,0.75
2023-03-15T10:19:52.616Z,0.94
2023-03-15T10:22:28.903Z,1.10
2023-03-15T10:25:01.020Z,1.34
2023-03-15T10:27:35.012Z,1.45
2023-03-15T10:30:04.516Z,1.54
2023-03-15T10:32:41.193Z,1.75
2023-03-15T10:35:17.730Z,1.89
2023-03-15T10:37:47.834Z,2.14
2023-03-15T10:40:18.353Z,2.18
2023-03-15T10:42:49.187Z,2.07
2023-03-15T10:45:24.243Z,2.23
2023-03-15T10:48:00.452Z,2.19
2023-03-15T10:50:35.266Z,1.84
2023-03-15T10:53:12.170Z,1.51
2023-03-15T10:55:46.772Z,1.09
2023-03-15T10:58:25.795Z,0.98
2023-03-15T11:00:57.288Z,1.13
2023-03-15T11:03:28.290Z,1.35
2023-03-15T11:06:03.390Z,1.60
2023-03-15T11:08:41.421Z,1.80
2023-03-15T11:11:11.614Z,1.91
2023-03-15T11:13:42.915Z,2.25
2023-03-15T11:16:24.265Z,2.48
2023-03-15T11:18:58.425Z,2.58
2023-03-15T11:21:34.252Z,2.39
2023-03-15T11:24:04.674Z,2.25
2023-03-15T11:26:37.336Z,2.28
2023-03-15T11:29:08.807Z,2.23
2023-03-15T11:31:38.901Z,2.50
2023-03-15T11:34:12.077Z,2.45
2023-03-15T11:36:55.660Z,2.41
2023-03-15T11:39:37.013Z,2.50
2023-03-15T11:42:11.852Z,1.94
2023-03-15T11:44:44.134Z,0.98
2023-03-15T11:47:16.887Z,0.66
2023-03-15T11:49:50.247Z,0.60
2023-03-15T11:52:24.333Z,0.74
2023-03-15T11:54:54.219Z,0.87
2023-03-15T11:57:45.151Z,1.08
2023-03-15T12:00:44.329Z,1.41
2023-03-15T12:03:34.380Z,1.60
2023-03-15T12:06:13.546Z,1.91
2023-03-15T12:08:48.550Z,2.16
2023-03-15T12:11:40.903Z,2.35
2023-03-15T12:14:30.878Z,2.46
2023-03-15T12:17:40.384Z,2.41
2023-03-15T12:20:18.158Z,2.54
2023-03-15T12:22:52.903Z,2.77
2023-03-15T12:25:28.356Z,2.95
2023-03-15T12:27:59.551Z,3.10
2023-03-15T12:30:34.421Z,3.15
2023-03-15T12:33:05.297Z,3.23
2023-03-15T12:35:41.308Z,3.19
2023-03-15T12:38:15.553Z,3.42
2023-03-15T12:40:55.682Z,3.58
2023-03-15T12:43:41.147Z,3.55
2023-03-15T12:46:10.968Z,3.53
2023-03-15T12:49:12.461Z,3.62
2023-03-15T12:51:46.319Z,3.37
2023-03-15T12:54:17.058Z,3.67
2023-03-15T12:56:51.076Z,4.06
2023-03-15T12:59:33.339Z,4.37
2023-03-15T13:02:04.304Z,4.27
2023-03-15T13:04:36.342Z,4.33
2023-03-15T13:07:30.562Z,4.88
2023-03-15T13:10:10.191Z,5.01
2023-03-15T13:12:43.425Z,5.36
2023-03-15T13:15:16.520Z,5.76
2023-03-15T13:17:51.927Z,5.87
2023-03-15T13:20:45.851Z,5.92
2023-03-15T13:23:19.970Z,5.96
2023-03-15T13:25:57.393Z,5.93
2023-03-15T13:28:29.032Z,6.22
2023-03-15T13:30:59.391Z,6.44
2023-03-15T13:33:31.458Z,6.54
2023-03-15T13:36:05.821Z,6.55
2023-03-15T13:38:36.803Z,6.69
2023-03-15T13:41:08.403Z,6.68
2023-03-15T13:43:39.736Z,6.66
2023-03-15T13:46:09.252Z,6.89
2023-03-15T13:48:40.263Z,7.01
2023-03-15T13:51:15.247Z,7.51
2023-03-15T13:53:49.865Z,7.38
2023-03-15T13:56:21.092Z,6.82
2023-03-15T13:58:52.179Z,6.28
2023-03-15T14:01:23.142Z,6.48
2023-03-15T14:03:58.209Z,7.11
2023-03-15T14:06:31.622Z,6.65
2023-03-15T14:09:04.093Z,6.65
2023-03-15T14:11:40.720Z,6.74
2023-03-15T14:14:25.970Z,7.21
2023-03-15T14:17:05.274Z,6.93
2023-03-15T14:19:36.854Z,6.65
2023-03-15T14:22:18.136Z,6.93
2023-03-15T14:24:51.131Z,6.48
2023-03-15T14:27:22.234Z,6.27
2023-03-15T14:29:53.551Z,6.79
2023-03-15T14:32:29.297Z,6.67
2023-03-15T14:35:04.168Z,6.26
2023-03-15T14:37:39.834Z,6.50
2023-03-15T14:40:15.985Z,6.43
2023-03-15T14:42:45.554Z,6.85
2023-03-15T14:45:17.635Z,6.87
2023-03-15T14:47:56.911Z,6.93
2023-03-15T14:50:28.957Z,6.75
2023-03-15T14:53:01.866Z,6.72
2023-03-15T14:55:34.870Z,6.69
2023-03-15T14:58:05.297Z,6.70
2023-03-15T15:00:35.589Z,6.45
2023-03-15T15:03:05.305Z,6.05
2023-03-15T15:05:37.214Z,5.74
2023-03-15T15:08:12.876Z,5.44
2023-03-15T15:10:42.866Z,5.45
2023-03-15T15:13:17.823Z,6.04
2023-03-15T15:15:55.034Z,6.03
2023-03-15T15:18:27.059Z,6.13
2023-03-15T15:20:57.480Z,5.96
2023-03-15T15:23:31.667Z,5.88
2023-03-15T15:26:03.275Z,5.78
2023-03-15T15:28:36.637Z,5.72
2023-03-15T15:31:08.213Z,5.54
2023-03-15T15:33:37.742Z,5.63
2023-03-15T15:36:17.202Z,5.59
2023-03-15T15:38:49.263Z,5.24
2023-03-15T15:41:22.172Z,5.08
2023-03-15T15:43:51.556Z,5.00
2023-03-15T15:46:21.098Z,4.86
2023-03-15T15:48:51.023Z,4.85
2023-03-15T15:51:28.300Z,4.81
2023-03-15T15:54:02.201Z,4.78
2023-03-15T15:56:35.134Z,4.78
2023-03-15T15:59:06.513Z,4.68
2023-03-15T16:01:41.029Z,4.63
2023-03-15T16:04:15.736Z,4.57
2023-03-15T16:06:45.292Z,4.62
2023-03-15T16:09:17.283Z,4.59
2023-03-15T16:11:46.676Z,4.53
2023-03-15T16:14:16.199Z,4.47
2023-03-15T16:16:46.970Z,4.41
2023-03-15T16:19:16.454Z,4.37
2023-03-15T16:21:50.561Z,4.35
2023-03-15T16:24:24.943Z,4.31
2023-03-15T16:26:55.956Z,4.34
2023-03-15T16:29:28.782Z,4.24
2023-03-15T16:32:13.950Z,4.23
2023-03-15T16:34:46.270Z,4.22
2023-03-15T16:37:17.374Z,4.17
2023-03-15T16:39:51.496Z,4.14
2023-03-15T16:42:22.450Z,4.10
2023-03-15T16:44:51.909Z,4.14
2023-03-15T16:47:21.961Z,4.13
2023-03-15T16:49:51.440Z,4.08
2023-03-15T16:52:20.953Z,4.00
2023-03-15T16:54:53.035Z,3.98
2023-03-15T16:57:25.232Z,3.96
2023-03-15T16:59:54.684Z,3.97
2023-03-15T17:02:25.613Z,3.94
2023-03-15T17:04:55.388Z,3.90
2023-03-15T17:07:28.440Z,3.86
2023-03-15T17:10:00.698Z,3.86
2023-03-15T17:12:31.147Z,3.82
2023-03-15T17:15:01.642Z,3.83
2023-03-15T17:17:33.193Z,3.78
2023-03-15T17:20:06.428Z,3.72
2023-03-15T17:22:35.893Z,3.64
2023-03-15T17:25:08.325Z,3.58
2023-03-15T17:27:39.452Z,3.45
2023-03-15T17:30:18.297Z,3.38
2023-03-15T17:32:47.940Z,3.33
2023-03-15T17:35:17.786Z,3.28
2023-03-15T17:37:47.750Z,3.21
2023-03-15T17:40:25.095Z,3.17
2023-03-15T17:42:55.404Z,3.08
2023-03-15T17:45:26.415Z,3.11
2023-03-15T17:47:56.756Z,3.06
2023-03-15T17:50:28.257Z,2.99
2023-03-15T17:52:58.820Z,2.94
2023-03-15T17:55:34.379Z,2.91
2023-03-15T17:58:04.297Z,2.84
2023-03-15T18:00:34.380Z,2.84
2023-03-15T18:03:04.467Z,2.79
2023-03-15T18:05:34.001Z,2.77
2023-03-15T18:08:03.906Z,2.70
2023-03-15T18:10:40.148Z,2.70
2023-03-15T18:13:09.605Z,2.62
2023-03-15T18:15:39.277Z,2.55
2023-03-15T18:18:08.784Z,2.52
2023-03-15T18:20:38.343Z,2.51
2023-03-15T18:23:08.493Z,2.51
2023-03-15T18:25:40.903Z,2.49
2023-03-15T18:28:10.454Z,2.45
2023-03-15T18:30:39.925Z,2.35
2023-03-15T18:33:09.392Z,2.33
2023-03-15T18:35:39.356Z,2.31
2023-03-15T18:38:08.842Z,2.28
2023-03-15T18:40:46.676Z,2.42
2023-03-15T18:43:16.852Z,2.24
2023-03-15T18:45:46.615Z,2.18
2023-03-15T18:48:16.034Z,2.19
2023-03-15T18:50:46.156Z,2.11
2023-03-15T18:53:15.695Z,2.11
2023-03-15T18:55:47.671Z,2.06
2023-03-15T18:58:17.150Z,1.98
2023-03-15T19:00:49.028Z,1.95
2023-03-15T19:03:18.439Z,1.92
2023-03-15T19:05:47.834Z,1.93
2023-03-15T19:08:17.259Z,1.86
2023-03-15T19:10:49.492Z,1.84
2023-03-15T19:13:18.944Z,1.79
2023-03-15T19:15:48.409Z,1.76
2023-03-15T19:18:17.829Z,1.78
2023-03-15T19:20:49.071Z,1.73
2023-03-15T19:23:18.499Z,1.69
2023-03-15T19:25:51.139Z,1.68
2023-03-15T19:28:20.562Z,1.65
2023-03-15T19:30:50.012Z,1.63
2023-03-15T19:33:19.486Z,1.62
2023-03-15T19:35:48.930Z,1.51
2023-03-15T19:38:18.939Z,1.53
2023-03-15T19:40:55.162Z,1.47
2023-03-15T19:43:26.210Z,1.45
2023-03-15T19:45:55.619Z,1.45
2023-03-15T19:48:25.081Z,1.40
2023-03-15T19:50:54.474Z,1.38
2023-03-15T19:53:23.925Z,1.41
2023-03-15T19:55:55.972Z,1.36
2023-03-15T19:58:25.433Z,1.28
2023-03-15T20:00:57.936Z,1.21
2023-03-15T20:03:27.723Z,1.20
2023-03-15T20:05:57.321Z,1.20
2023-03-15T20:08:26.812Z,1.18
2023-03-15T20:11:04.748Z,1.10
2023-03-15T20:13:35.317Z,1.07
2023-03-15T20:16:04.879Z,0.98
2023-03-15T20:18:34.497Z,0.93
2023-03-15T20:21:03.932Z,0.90
2023-03-15T20:23:33.513Z,0.87
2023-03-15T20:26:10.882Z,0.83
2023-03-15T20:28:41.363Z,0.83
2023-03-15T20:31:11.720Z,0.82
2023-03-15T20:33:41.380Z,0.75
2023-03-15T20:36:11.275Z,0.75
2023-03-15T20:38:41.024Z,0.71
2023-03-15T20:41:13.890Z,0.69
2023-03-15T20:43:43.810Z,0.69
2023-03-15T20:46:13.724Z,0.65
2023-03-15T20:48:43.236Z,0.60
2023-03-15T20:51:12.611Z,0.57
2023-03-15T20:53:42.349Z,0.56
2023-03-15T20:56:14.406Z,0.52
2023-03-15T20:58:43.923Z,0.45
2023-03-15T21:01:15.020Z,0.49
2023-03-15T21:03:44.702Z,0.45
2023-03-15T21:06:14.273Z,0.42
2023-03-15T21:08:45.990Z,0.39
2023-03-15T21:11:17.998Z,0.36
2023-03-15T21:13:47.873Z,0.31
2023-03-15T21:16:17.469Z,0.30
2023-03-15T21:18:51.824Z,0.32
2023-03-15T21:21:21.873Z,0.34
2023-03-15T21:23:51.310Z,0.31
2023-03-15T21:26:23.468Z,0.26
2023-03-15T21:28:52.962Z,0.24
2023-03-15T21:31:22.510Z,0.22
2023-03-15T21:33:51.972Z,0.22
2023-03-15T21:36:21.396Z,0.17
2023-03-15T21:38:50.994Z,0.19
2023-03-15T21:41:22.962Z,0.19
2023-03-15T21:43:52.439Z,0.20
2023-03-15T21:46:21.935Z,0.19
2023-03-15T21:48:51.694Z,0.16
2023-03-15T21:51:22.257Z,0.18
2023-03-15T21:53:51.786Z,0.18
2023-03-15T21:56:26.158Z,0.17
2023-03-15T21:58:56.242Z,0.17
2023-03-15T22:01:25.688Z,0.19
2023-03-15T22:03:55.933Z,0.20
2023-03-15T22:06:25.407Z,0.25
2023-03-15T22:08:54.944Z,0.20
2023-03-15T22:11:26.903Z,0.25
2023-03-15T22:13:56.312Z,0.28
2023-03-15T22:16:25.773Z,0.29
2023-03-15T22:18:55.273Z,0.26
2023-03-15T22:21:24.644Z,0.25
2023-03-15T22:23:54.083Z,0.24
2023-03-15T22:26:23.775Z,0.27
2023-03-15T22:28:55.815Z,0.30
2023-03-15T22:31:25.301Z,0.25
2023-03-15T22:33:54.710Z,0.23
2023-03-15T22:36:24.316Z,0.23
2023-03-15T22:38:54.255Z,0.21
2023-03-15T22:41:24.096Z,0.22
2023-03-15T22:43:56.393Z,0.22
2023-03-15T22:46:26.098Z,0.19
2023-03-15T22:48:55.542Z,0.16
2023-03-15T22:51:24.927Z,0.16
2023-03-15T22:53:54.451Z,0.17
2023-03-15T22:56:23.851Z,0.16
2023-03-15T22:58:55.895Z,0.12
2023-03-15T23:01:25.420Z,0.09
2023-03-15T23:03:54.882Z,0.11
2023-03-15T23:06:25.412Z,0.08
2023-03-15T23:08:54.846Z,0.07
2023-03-15T23:11:24.393Z,0.01
2023-03-15T23:13:56.708Z,0.02
2023-03-15T23:16:26.234Z,0.02
2023-03-15T23:18:55.701Z,-0.01
2023-03-15T23:21:25.124Z,-0.06
2023-03-15T23:23:54.568Z,-0.13
2023-03-15T23:26:25.695Z,-0.16
2023-03-15T23:28:57.781Z,-0.20
2023-03-15T23:31:27.211Z,-0.27
2023-03-15T23:33:56.638Z,-0.26
2023-03-15T23:36:26.053Z,-0.26
2023-03-15T23:38:56.078Z,-0.31
2023-03-15T23:41:25.502Z,-0.31
2023-03-15T23:43:57.539Z,-0.36
2023-03-15T23:46:28.197Z,-0.32
2023-03-15T23:48:57.882Z,-0.35
2023-03-15T23:51:27.292Z,-0.26
2023-03-15T23:53:56.746Z,-0.31
2023-03-15T23:56:26.166Z,-0.32
2023-03-15T23:58:58.732Z,-0.34
